Time;durP1;ratioP1;P1;durP2;ratioP2;P2;SDS_P1;SDS_P2;PMS_P1;PMS_P2;Temp;Humidity;BMP_temperature;BMP_pressure;BME280_temperature;BME280_humidity;BME280_pressure;Samples;Min_cycle;Max_cycle;Signal;HPM_P1;HPM_P2
2022/01/08 00:04:12;;;;;;;10.18;7.95;;;;;;;1.57;66.16;101289.38;4990313;28;20077;-71
2022/01/08 00:06:37;;;;;;;12.18;8.95;;;;;;;1.99;65.40;101305.28;4984962;28;20754;-70
2022/01/08 00:09:03;;;;;;;16.00;8.55;;;;;;;1.48;66.48;101302.78;4981823;28;20034;-72
2022/01/08 00:11:28;;;;;;;12.52;8.25;;;;;;;1.61;66.06;101318.06;4989667;28;20030;-70
2022/01/08 00:13:55;;;;;;;15.35;9.32;;;;;;;1.83;65.58;101311.41;4987058;28;20038;-74
2022/01/08 00:16:20;;;;;;;14.70;8.55;;;;;;;1.81;66.57;101310.44;4985536;28;20041;-70
2022/01/08 00:18:46;;;;;;;18.25;9.38;;;;;;;1.64;66.29;101320.84;4991098;28;20030;-71
2022/01/08 00:21:11;;;;;;;15.93;7.28;;;;;;;1.47;65.98;101281.19;4985165;28;20034;-70
2022/01/08 00:23:37;;;;;;;20.05;9.18;;;;;;;2.10;65.62;101320.50;4985203;28;20030;-70
2022/01/08 00:26:04;;;;;;;10.25;7.22;;;;;;;1.81;65.91;101310.44;4985426;28;20056;-69
2022/01/08 00:28:30;;;;;;;12.93;8.80;;;;;;;1.77;66.21;101304.22;4986040;28;20045;-71
2022/01/08 00:30:56;;;;;;;11.73;8.27;;;;;;;1.72;65.97;101313.47;4982774;28;20046;-72
2022/01/08 00:33:21;;;;;;;10.45;6.80;;;;;;;1.61;66.33;101314.59;4986999;28;20129;-75
2022/01/08 00:35:47;;;;;;;13.13;9.23;;;;;;;1.38;67.05;101290.16;4990059;28;20048;-71
2022/01/08 00:38:13;;;;;;;14.43;8.23;;;;;;;1.37;66.94;101297.03;4995152;28;20045;-71
2022/01/08 00:40:38;;;;;;;14.25;8.88;;;;;;;1.37;67.35;101299.63;4992548;28;20047;-72
2022/01/08 00:43:04;;;;;;;12.82;8.50;;;;;;;1.61;66.92;101306.84;4987321;28;20084;-71
2022/01/08 00:45:29;;;;;;;14.48;8.10;;;;;;;1.65;67.22;101309.66;4991999;28;20136;-70
2022/01/08 00:47:55;;;;;;;12.98;8.35;;;;;;;1.46;67.30;101294.91;4993543;28;20045;-71
2022/01/08 00:50:21;;;;;;;19.38;8.50;;;;;;;1.42;67.39;101302.44;4992010;28;20065;-75
2022/01/08 00:52:47;;;;;;;11.95;8.20;;;;;;;1.48;68.53;101306.22;4990135;28;20055;-72
2022/01/08 00:55:13;;;;;;;17.88;8.50;;;;;;;1.47;68.64;101293.22;4988105;28;20095;-73
2022/01/08 00:57:38;;;;;;;11.45;8.23;;;;;;;1.51;69.33;101307.19;4990722;28;20101;-73
2022/01/08 01:00:07;;;;;;;15.15;9.73;;;;;;;1.68;69.69;101301.16;4990448;28;20042;-76
2022/01/08 01:02:32;;;;;;;16.95;9.02;;;;;;;1.51;70.47;101302.91;4983186;28;20030;-73
2022/01/08 01:04:58;;;;;;;13.40;9.00;;;;;;;1.16;72.06;101276.13;4989084;28;20042;-71
2022/01/08 01:07:23;;;;;;;14.10;10.07;;;;;;;1.29;73.00;101300.03;4985527;28;20399;-71
2022/01/08 01:09:49;;;;;;;13.10;7.95;;;;;;;1.10;73.79;101283.59;4987752;28;20057;-70
2022/01/08 01:16:07;;;;;;;12.55;9.02;;;;;;;0.82;75.49;101252.84;5040377;28;20606;-69
2022/01/08 01:18:33;;;;;;;14.32;9.02;;;;;;;0.92;76.17;101278.34;5026323;28;20043;-78
2022/01/08 01:20:58;;;;;;;11.95;7.65;;;;;;;0.55;77.14;101267.72;5029262;28;20115;-72
2022/01/08 01:24:21;;;;;;;14.50;9.13;;;;;;;0.91;76.26;101252.41;5050330;28;20632;-71
2022/01/08 01:28:21;;;;;;;17.10;9.32;;;;;;;0.88;76.12;101280.66;5100328;27;20619;-70
2022/01/08 01:48:15;;;;;;;11.07;8.90;;;;;;;0.92;77.93;101212.84;5032811;28;20258;-71
2022/01/08 01:50:40;;;;;;;10.75;7.93;;;;;;;0.73;78.21;101239.44;5033264;28;20457;-72
2022/01/08 01:53:06;;;;;;;11.68;9.35;;;;;;;1.05;78.07;101234.25;5032477;28;20029;-71
2022/01/08 01:55:32;;;;;;;14.57;9.23;;;;;;;1.12;77.42;101219.03;5033773;28;20045;-71
2022/01/08 01:58:00;;;;;;;12.45;8.65;;;;;;;1.46;76.62;101217.34;5031782;28;20065;-71
2022/01/08 02:00:25;;;;;;;14.27;8.95;;;;;;;1.09;76.69;101221.47;5032174;28;20535;-70
2022/01/08 02:02:51;;;;;;;16.83;9.00;;;;;;;1.46;76.35;101230.28;5033334;28;20033;-71
2022/01/08 02:05:16;;;;;;;13.40;9.57;;;;;;;1.24;76.76;101235.16;5029165;28;20037;-72
2022/01/08 02:07:42;;;;;;;16.85;9.27;;;;;;;1.40;76.95;101224.78;5032002;28;20048;-71
2022/01/08 02:10:08;;;;;;;12.70;9.20;;;;;;;1.39;76.32;101198.88;5029042;28;20124;-70
2022/01/08 02:12:33;;;;;;;19.15;10.13;;;;;;;1.33;77.30;101214.06;5031544;28;20050;-75
2022/01/08 02:14:59;;;;;;;13.52;9.35;;;;;;;1.33;77.26;101214.06;5029826;28;20540;-70
2022/01/08 02:17:25;;;;;;;14.65;7.80;;;;;;;0.76;78.60;101221.50;5061593;28;20037;-72
2022/01/08 02:19:54;;;;;;;16.48;9.57;;;;;;;0.86;78.98;101199.59;5031962;28;20037;-73
2022/01/08 02:22:20;;;;;;;13.20;9.93;;;;;;;1.03;79.02;101222.94;5031553;28;20057;-72
2022/01/08 02:24:47;;;;;;;15.23;8.68;;;;;;;1.12;78.64;101194.06;5032698;28;20115;-71
2022/01/08 02:27:13;;;;;;;14.30;8.55;;;;;;;1.27;78.29;101207.78;5034243;28;20060;-71
2022/01/08 02:29:39;;;;;;;16.45;10.50;;;;;;;1.24;78.06;101211.91;5030401;28;20508;-71
2022/01/08 02:32:08;;;;;;;14.73;9.93;;;;;;;0.90;79.48;101210.19;5030993;28;20063;-72
2022/01/08 02:34:35;;;;;;;14.95;9.25;;;;;;;0.89;80.51;101208.41;5031454;28;20128;-71
2022/01/08 02:37:01;;;;;;;15.18;9.73;;;;;;;0.77;80.67;101187.09;5031612;28;20048;-73
2022/01/08 02:39:27;;;;;;;12.40;8.57;;;;;;;0.70;80.89;101209.13;5029227;28;20041;-71
2022/01/08 02:41:57;;;;;;;15.55;9.07;;;;;;;0.51;81.99;101196.06;5028396;28;20036;-70
2022/01/08 02:44:23;;;;;;;15.30;8.50;;;;;;;0.69;82.02;101193.56;5030650;28;20434;-73
2022/01/08 02:46:49;;;;;;;18.92;9.82;;;;;;;0.30;83.21;101206.13;5029873;28;20461;-76
2022/01/08 02:49:15;;;;;;;13.82;8.63;;;;;;;0.56;82.64;101181.69;5029536;28;20041;-72
2022/01/08 02:51:40;;;;;;;15.48;9.50;;;;;;;0.41;83.93;101193.00;5017602;28;20048;-72
2022/01/08 02:54:11;;;;;;;21.15;10.18;;;;;;;0.15;83.99;101182.97;5017633;28;20037;-71
2022/01/08 02:56:41;;;;;;;15.30;9.38;;;;;;;0.34;84.21;101190.00;5016855;28;20625;-72
2022/01/08 02:59:07;;;;;;;17.60;10.23;;;;;;;0.71;84.15;101198.00;5017562;28;20095;-70
2022/01/08 03:01:33;;;;;;;12.27;9.23;;;;;;;0.15;85.31;101191.59;5016730;28;20052;-70
2022/01/08 03:03:59;;;;;;;14.40;9.27;;;;;;;0.22;85.41;101199.69;5016142;28;20393;-70
2022/01/08 03:06:24;;;;;;;9.85;8.13;;;;;;;0.19;85.47;101193.53;5018252;28;20065;-72
2022/01/08 03:08:50;;;;;;;10.50;4.65;;;;;;;0.03;86.24;101201.25;5019958;28;20025;-71
2022/01/08 03:11:15;;;;;;;13.45;9.48;;;;;;;0.16;86.28;101192.47;5019766;28;20028;-73
2022/01/08 03:13:41;;;;;;;13.40;10.07;;;;;;;-0.09;86.79;101177.38;5020370;28;20041;-72
2022/01/08 03:16:06;;;;;;;13.60;9.88;;;;;;;0.25;86.27;101172.31;5018616;28;20045;-75
2022/01/08 03:18:34;;;;;;;14.32;10.38;;;;;;;0.14;86.86;101192.41;5014141;28;20029;-71
2022/01/08 03:21:04;;;;;;;12.63;9.52;;;;;;;0.01;87.52;101187.38;5017630;28;20064;-70
2022/01/08 03:23:42;;;;;;;10.68;6.28;;;;;;;-0.26;87.64;101164.41;5016090;28;20033;-69
2022/01/08 03:26:08;;;;;;;13.05;9.95;;;;;;;-0.07;87.83;101173.16;5020207;28;20045;-72
2022/01/08 03:28:34;;;;;;;14.40;9.82;;;;;;;0.06;87.70;101180.75;5021474;28;20041;-71
2022/01/08 03:31:00;;;;;;;13.73;9.75;;;;;;;0.17;87.70;101187.41;5018368;28;20046;-70
2022/01/08 03:33:25;;;;;;;13.32;9.65;;;;;;;0.11;87.64;101181.91;5017715;28;20547;-71
2022/01/08 03:35:51;;;;;;;12.32;9.27;;;;;;;0.06;87.63;101172.16;5016589;28;20481;-70
2022/01/08 03:38:16;;;;;;;16.17;10.20;;;;;;;-0.23;87.90;101161.13;5016814;28;20481;-70
2022/01/08 03:40:41;;;;;;;14.93;10.73;;;;;;;0.26;87.74;101181.88;5017923;28;20412;-72
2022/01/08 03:43:07;;;;;;;20.13;10.10;;;;;;;0.31;87.18;101179.53;5015595;28;20038;-71
2022/01/08 03:45:32;;;;;;;15.82;9.95;;;;;;;0.22;87.37;101174.75;5015621;28;20045;-71
2022/01/08 03:48:19;;;;;;;13.40;9.55;;;;;;;-0.13;87.73;101165.09;5015820;28;20060;-74
2022/01/08 03:50:45;;;;;;;13.60;10.43;;;;;;;-0.13;87.97;101178.00;5017035;28;20041;-72
2022/01/08 03:53:12;;;;;;;15.40;11.00;;;;;;;0.43;87.53;101161.22;5017324;28;20148;-71
2022/01/08 03:55:38;;;;;;;15.75;10.38;;;;;;;0.02;87.92;101163.34;4997730;28;20046;-70
2022/01/08 03:58:04;;;;;;;10.57;5.22;;;;;;;-0.16;88.85;101157.19;5014479;28;20067;-75
2022/01/08 04:00:31;;;;;;;13.40;10.70;;;;;;;0.49;87.86;101166.69;5015132;28;20041;-74
2022/01/08 04:02:56;;;;;;;15.63;11.02;;;;;;;-0.34;88.64;101147.63;5015809;28;20613;-71
2022/01/08 04:05:22;;;;;;;18.45;11.27;;;;;;;-0.19;89.32;101151.84;5011817;28;20148;-71
2022/01/08 04:07:47;;;;;;;14.63;10.65;;;;;;;0.11;89.13;101156.09;5014274;28;20038;-71
2022/01/08 04:10:13;;;;;;;15.05;11.27;;;;;;;-0.09;89.57;101155.03;5014200;28;20045;-74
2022/01/08 04:12:49;;;;;;;16.38;12.52;;;;;;;-0.06;89.64;101162.03;5022084;28;20050;-72
2022/01/08 04:17:51;;;;;;;10.75;4.93;;;;;;;-0.22;89.43;101152.56;5015819;28;20807;-70
2022/01/08 04:20:17;;;;;;;18.77;13.00;;;;;;;-0.44;90.11;101145.34;5017064;28;20042;-72
2022/01/08 04:22:45;;;;;;;16.75;11.95;;;;;;;-0.27;90.72;101148.84;5019066;28;20140;-70
2022/01/08 04:25:11;;;;;;;16.73;11.88;;;;;;;-0.12;90.44;101156.53;5018732;28;20054;-72
2022/01/08 04:27:37;;;;;;;10.90;7.13;;;;;;;-0.08;90.54;101153.34;5014548;28;20050;-72
2022/01/08 04:30:03;;;;;;;15.15;10.13;;;;;;;-0.44;90.86;101146.22;5015847;28;20041;-71
2022/01/08 04:32:29;;;;;;;11.35;7.05;;;;;;;-0.41;91.20;101150.66;5016802;28;20079;-72
2022/01/08 04:34:54;;;;;;;16.10;12.15;;;;;;;-0.47;90.91;101134.84;5012816;28;20045;-73
2022/01/08 04:37:20;;;;;;;17.02;12.55;;;;;;;-0.15;91.41;101151.22;5016190;28;20042;-74
2022/01/08 04:42:10;;;;;;;16.52;11.27;;;;;;;-0.35;91.00;101130.38;5041624;28;20606;-72
2022/01/08 04:44:35;;;;;;;11.43;6.65;;;;;;;-0.23;90.48;101128.47;5007518;28;20041;-72
2022/01/08 04:47:01;;;;;;;15.60;12.75;;;;;;;-0.31;91.27;101144.31;5004545;28;20470;-72
2022/01/08 04:49:26;;;;;;;12.48;7.43;;;;;;;-0.31;91.39;101147.78;5004267;28;20136;-71
2022/01/08 04:51:53;;;;;;;18.58;6.55;;;;;;;-0.25;91.77;101147.25;5003086;28;20061;-71
2022/01/08 04:54:19;;;;;;;12.52;11.15;;;;;;;-0.34;92.10;101146.75;5006620;28;20038;-70
2022/01/08 04:56:45;;;;;;;10.75;6.95;;;;;;;-0.29;91.66;101115.25;5006199;28;20045;-71
2022/01/08 04:59:11;;;;;;;13.88;12.00;;;;;;;0.02;91.58;101139.25;5005585;28;20401;-74
2022/01/08 05:04:10;;;;;;;8.10;5.20;;;;;;;0.08;91.05;101148.19;5035828;28;20627;-71
2022/01/08 05:06:36;;;;;;;9.30;6.38;;;;;;;0.19;90.35;101125.56;5026236;28;20045;-72
2022/01/08 05:09:03;;;;;;;10.38;5.93;;;;;;;-0.02;89.88;101120.16;5021933;28;20061;-72
2022/01/08 05:11:28;;;;;;;13.60;7.63;;;;;;;-0.13;91.13;101150.50;5019318;28;20037;-72
2022/01/08 05:13:55;;;;;;;14.90;11.35;;;;;;;-0.36;91.45;101150.91;5019221;28;20053;-70
2022/01/08 05:16:21;;;;;;;18.08;7.28;;;;;;;0.01;91.98;101156.41;5009560;28;20050;-71
2022/01/08 05:18:49;;;;;;;12.93;7.95;;;;;;;-0.29;91.22;101124.66;5009033;28;20033;-72
2022/01/08 05:21:24;;;;;;;9.05;6.00;;;;;;;-0.29;91.56;101142.72;5011195;28;20647;-71
2022/01/08 05:23:50;;;;;;;11.38;6.30;;;;;;;-0.36;92.20;101114.81;5011691;28;20037;-71
2022/01/08 05:26:16;;;;;;;13.35;7.30;;;;;;;-0.19;92.12;101134.69;5011196;28;20042;-72
2022/01/08 05:28:44;;;;;;;15.90;12.50;;;;;;;0.34;91.64;101133.22;5010269;28;20076;-71
2022/01/08 05:31:10;;;;;;;9.23;5.22;;;;;;;0.08;91.03;101134.41;5012891;28;20561;-72
2022/01/08 05:33:35;;;;;;;16.30;12.05;;;;;;;-0.02;91.13;101143.34;5010923;28;20056;-74
2022/01/08 05:36:01;;;;;;;12.80;7.85;;;;;;;-0.08;90.98;101132.69;5011790;28;20026;-71
2022/01/08 05:38:26;;;;;;;10.65;6.40;;;;;;;-0.23;91.35;101118.16;5012491;28;20022;-71
2022/01/08 05:40:52;;;;;;;12.15;7.25;;;;;;;-0.20;91.44;101125.19;5011853;28;20498;-74
2022/01/08 05:43:17;;;;;;;11.95;9.77;;;;;;;-0.01;91.78;101151.16;5012754;28;20113;-70
2022/01/08 05:45:43;;;;;;;10.43;5.85;;;;;;;0.41;91.46;101143.06;5011286;28;20037;-70
2022/01/08 05:48:09;;;;;;;12.25;6.28;;;;;;;0.01;90.88;101150.38;5010710;28;20057;-71
2022/01/08 05:50:34;;;;;;;7.97;5.63;;;;;;;-0.10;91.45;101153.22;5009722;28;20021;-75
2022/01/08 05:53:00;;;;;;;10.93;6.88;;;;;;;-0.11;91.76;101155.75;5013342;28;20058;-72
2022/01/08 05:55:25;;;;;;;11.32;6.10;;;;;;;-0.08;91.56;101151.63;5010701;28;20053;-71
2022/01/08 05:57:51;;;;;;;15.60;10.68;;;;;;;-0.20;91.92;101145.81;5010579;28;20100;-72
2022/01/08 06:00:16;;;;;;;16.17;11.35;;;;;;;-0.40;92.45;101128.34;5009484;28;20072;-73
2022/01/08 06:02:42;;;;;;;11.98;6.93;;;;;;;-0.30;92.39;101136.69;5011200;28;20128;-73
2022/01/08 06:05:08;;;;;;;8.52;5.13;;;;;;;-0.27;92.69;101142.00;5007948;28;20502;-74
2022/01/08 06:07:34;;;;;;;11.98;6.03;;;;;;;-0.35;92.56;101124.31;5012064;28;20049;-71
2022/01/08 06:14:10;;;;;;;9.82;5.15;;;;;;;-0.43;92.98;101123.91;5031530;27;20623;-72
2022/01/08 06:18:05;;;;;;;11.43;7.40;;;;;;;-0.38;93.12;101106.13;5049397;28;20957;-73
2022/01/08 06:20:30;;;;;;;16.60;6.03;;;;;;;-0.27;93.29;101130.81;5002283;28;20022;-71
2022/01/08 06:22:56;;;;;;;10.23;5.82;;;;;;;-0.18;93.52;101138.16;5013761;28;20052;-71
2022/01/08 06:26:12;;;;;;;11.00;7.70;;;;;;;0.12;93.13;101138.94;5066573;27;20130;-71
2022/01/08 06:28:37;;;;;;;9.90;6.05;;;;;;;-0.06;92.40;101118.19;5063488;28;20114;-70
2022/01/08 06:31:03;;;;;;;11.18;7.18;;;;;;;-0.23;92.53;101106.97;5066960;28;20579;-72
2022/01/08 06:33:28;;;;;;;13.02;6.60;;;;;;;-0.31;93.12;101110.81;5065995;28;20037;-71
2022/01/08 06:35:54;;;;;;;13.30;11.00;;;;;;;-0.18;92.94;101141.63;5065419;28;20413;-72
2022/01/08 06:38:19;;;;;;;10.30;7.07;;;;;;;-0.03;93.21;101131.25;5064047;28;20420;-71
2022/01/08 06:40:45;;;;;;;10.80;6.15;;;;;;;-0.09;93.16;101120.63;5067024;28;20036;-72
2022/01/08 06:43:12;;;;;;;14.98;5.95;;;;;;;-0.29;93.12;101089.44;5062171;28;20052;-71
2022/01/08 06:45:37;;;;;;;10.68;6.70;;;;;;;-0.08;93.44;101099.16;5061468;28;20044;-70
2022/01/08 06:48:04;;;;;;;9.50;6.32;;;;;;;0.20;92.77;101115.31;5066285;28;20577;-71
2022/01/08 06:50:29;;;;;;;10.80;7.22;;;;;;;0.11;92.80;101090.72;5065124;28;20016;-73
2022/01/08 06:52:55;;;;;;;17.95;6.05;;;;;;;0.24;92.11;101106.03;5062775;28;20036;-72
2022/01/08 06:55:21;;;;;;;15.45;7.20;;;;;;;0.11;92.08;101108.78;5067220;28;20460;-72
2022/01/08 06:57:47;;;;;;;13.50;7.15;;;;;;;0.08;92.44;101101.75;5066168;28;20078;-71
2022/01/08 07:00:12;;;;;;;10.10;5.93;;;;;;;0.17;92.33;101101.38;5046281;28;20117;-70
2022/01/08 07:02:39;;;;;;;9.00;6.00;;;;;;;0.01;92.34;101099.66;5061950;28;20100;-72
2022/01/08 07:05:04;;;;;;;9.00;6.75;;;;;;;-0.10;92.81;101078.44;5061913;28;20056;-70
2022/01/08 07:07:30;;;;;;;19.00;7.95;;;;;;;-0.11;92.74;101099.00;5061546;28;20037;-70
2022/01/08 07:09:55;;;;;;;12.95;7.35;;;;;;;-0.19;93.15;101085.69;5063370;28;20461;-74
2022/01/08 07:12:21;;;;;;;12.27;7.55;;;;;;;0.39;92.95;101099.09;5061617;28;20040;-70
2022/01/08 07:14:46;;;;;;;22.10;13.52;;;;;;;-0.09;92.86;101077.66;5064645;28;20119;-72
2022/01/08 07:17:12;;;;;;;11.85;6.70;;;;;;;-0.15;92.71;101074.72;5061125;28;20476;-71
2022/01/08 07:19:37;;;;;;;15.90;12.35;;;;;;;-0.06;92.89;101077.81;5063407;28;20469;-72
2022/01/08 07:22:03;;;;;;;11.55;6.78;;;;;;;0.01;92.97;101097.09;5064028;28;20043;-77
2022/01/08 07:24:28;;;;;;;29.40;8.93;;;;;;;-0.14;93.03;101094.56;5063721;28;20052;-70
2022/01/08 07:26:54;;;;;;;11.90;7.68;;;;;;;0.09;93.32;101089.75;5064662;27;20136;-71
2022/01/08 07:29:19;;;;;;;12.13;7.95;;;;;;;0.39;92.56;101090.47;5046504;28;20037;-72
2022/01/08 07:34:12;;;;;;;13.45;6.93;;;;;;;0.40;92.24;101069.03;5012900;27;20613;-72
2022/01/08 07:36:38;;;;;;;10.57;6.20;;;;;;;0.03;91.80;101068.78;4995300;28;20122;-72
2022/01/08 07:39:03;;;;;;;11.38;6.60;;;;;;;0.00;92.38;101085.00;4996655;28;20382;-71
2022/01/08 07:41:29;;;;;;;13.32;9.43;;;;;;;-0.13;92.77;101061.94;4993788;28;20208;-76
2022/01/08 07:43:54;;;;;;;11.13;7.63;;;;;;;-0.05;92.70;101076.09;4995635;28;20045;-76
2022/01/08 07:46:20;;;;;;;14.85;7.30;;;;;;;-0.09;93.14;101082.81;4996299;28;20049;-73
2022/01/08 07:48:45;;;;;;;14.43;7.68;;;;;;;0.10;92.78;101070.88;4995373;28;20113;-72
2022/01/08 07:51:11;;;;;;;14.30;7.00;;;;;;;0.50;92.40;101057.47;4993967;28;20054;-72
2022/01/08 07:53:36;;;;;;;23.70;8.52;;;;;;;0.01;92.14;101048.06;4993555;28;20139;-71
2022/01/08 07:56:02;;;;;;;12.88;8.50;;;;;;;0.06;92.41;101064.66;4995379;28;20042;-71
2022/01/08 07:58:27;;;;;;;17.42;8.48;;;;;;;-0.09;92.58;101066.44;4996231;28;20046;-71
2022/01/08 08:00:57;;;;;;;19.83;15.23;;;;;;;-0.01;92.71;101073.78;4995194;28;20039;-72
2022/01/08 08:03:23;;;;;;;9.30;7.28;;;;;;;-0.20;92.74;101055.53;4995854;28;20057;-71
2022/01/08 08:05:48;;;;;;;14.48;9.95;;;;;;;-0.09;92.77;101061.28;4995289;28;20033;-73
2022/01/08 08:08:19;;;;;;;16.55;9.75;;;;;;;0.27;92.65;101071.75;4994707;28;20038;-71
2022/01/08 08:10:47;;;;;;;13.23;7.72;;;;;;;0.09;92.58;101069.09;4995037;28;20057;-73
2022/01/08 08:13:13;;;;;;;11.70;8.95;;;;;;;0.06;92.37;101063.78;4997705;28;20112;-73
2022/01/08 08:15:39;;;;;;;12.38;7.95;;;;;;;-0.03;92.68;101049.59;4993899;28;20053;-71
2022/01/08 08:18:05;;;;;;;11.40;8.15;;;;;;;0.04;92.64;101060.25;4993412;28;20318;-71
2022/01/08 08:20:31;;;;;;;17.08;8.60;;;;;;;0.01;92.62;101057.50;4992497;28;20041;-75
2022/01/08 08:22:57;;;;;;;14.73;9.55;;;;;;;0.19;92.88;101056.78;4995720;28;20042;-71
2022/01/08 08:25:22;;;;;;;13.70;8.65;;;;;;;0.10;92.37;101058.00;4995934;28;20053;-72
2022/01/08 08:27:50;;;;;;;21.58;8.95;;;;;;;0.02;92.12;101038.63;4994349;28;20042;-76
2022/01/08 08:30:16;;;;;;;13.35;9.45;;;;;;;0.04;92.35;101058.53;4993839;28;20089;-71
2022/01/08 08:32:41;;;;;;;13.30;10.70;;;;;;;0.20;92.32;101035.31;4995182;28;20449;-71
2022/01/08 08:35:08;;;;;;;16.02;9.77;;;;;;;-0.10;92.04;101028.56;4994281;28;20081;-70
2022/01/08 08:37:35;;;;;;;15.80;9.23;;;;;;;-0.11;92.07;101019.94;4995290;28;20077;-72
2022/01/08 08:40:02;;;;;;;14.93;10.10;;;;;;;0.07;92.27;101021.69;4994255;28;20854;-71
2022/01/08 08:42:28;;;;;;;15.40;8.93;;;;;;;0.28;92.26;101024.50;4995165;28;20035;-79
2022/01/08 08:44:53;;;;;;;17.52;10.70;;;;;;;0.03;92.34;101004.31;4985343;28;20378;-76
2022/01/08 08:47:19;;;;;;;13.70;9.43;;;;;;;0.14;92.11;101026.34;4981852;28;20425;-72
2022/01/08 08:52:16;;;;;;;21.20;12.48;;;;;;;0.01;92.27;101011.06;5019714;27;20621;-73
2022/01/08 08:54:43;;;;;;;14.57;9.80;;;;;;;-0.05;92.39;100998.72;4999929;28;20040;-79
2022/01/08 08:57:09;;;;;;;16.02;10.18;;;;;;;-0.06;92.49;101010.75;4998978;28;25594;-72
2022/01/08 08:59:36;;;;;;;15.45;10.00;;;;;;;-0.18;92.76;100991.16;4997258;28;20045;-75
2022/01/08 09:02:02;;;;;;;20.27;11.68;;;;;;;0.22;92.64;101008.72;5003174;28;20085;-71
2022/01/08 09:04:27;;;;;;;15.60;9.90;;;;;;;0.06;92.42;100994.13;4999120;28;20445;-70
2022/01/08 09:06:53;;;;;;;16.05;10.55;;;;;;;0.04;92.28;101003.47;5002308;28;20065;-71
2022/01/08 09:09:20;;;;;;;19.10;11.77;;;;;;;0.08;92.61;100997.69;4997966;28;20390;-71
2022/01/08 09:11:45;;;;;;;19.17;12.07;;;;;;;0.14;92.35;100996.31;4997578;28;20038;-71
2022/01/08 09:14:11;;;;;;;13.88;10.57;;;;;;;0.01;92.17;100988.72;5001062;28;20382;-71
2022/01/08 09:16:37;;;;;;;20.30;10.52;;;;;;;-0.02;92.44;100973.09;5007888;28;20099;-73
2022/01/08 09:19:03;;;;;;;16.48;9.43;;;;;;;-0.04;92.50;100970.44;5001308;28;20521;-71
2022/01/08 09:21:29;;;;;;;21.88;11.18;;;;;;;-0.09;92.77;100959.00;5009588;28;20039;-70
2022/01/08 09:23:55;;;;;;;16.95;10.88;;;;;;;-0.05;92.63;100958.38;5007511;28;20109;-72
2022/01/08 09:26:58;;;;;;;19.58;12.65;;;;;;;0.10;92.76;100981.47;5010198;28;20111;-70
2022/01/08 09:32:56;;;;;;;14.63;9.43;;;;;;;-0.13;92.77;100946.75;5010261;28;20414;-70
2022/01/08 09:35:22;;;;;;;13.75;10.70;;;;;;;0.00;93.02;100948.28;5018454;28;20494;-71
2022/01/08 09:37:48;;;;;;;24.10;15.48;;;;;;;0.11;92.88;100941.94;5029165;28;20137;-71
2022/01/08 09:40:17;;;;;;;20.70;15.57;;;;;;;0.05;92.70;100951.97;5012170;28;20049;-71
2022/01/08 09:42:51;;;;;;;12.68;8.25;;;;;;;0.00;92.87;100948.28;5000842;28;20057;-70
2022/01/08 09:45:17;;;;;;;14.20;9.35;;;;;;;-0.09;92.86;100937.50;4999273;28;20084;-71
2022/01/08 09:47:42;;;;;;;15.60;10.13;;;;;;;0.01;92.78;100933.69;5002801;28;20034;-71
2022/01/08 09:50:08;;;;;;;16.73;9.00;;;;;;;-0.12;92.98;100927.00;4998476;28;20156;-70
2022/01/08 09:52:35;;;;;;;20.23;10.45;;;;;;;-0.18;93.21;100922.41;4998554;28;20038;-71
2022/01/08 09:55:01;;;;;;;21.25;11.30;;;;;;;-0.04;93.24;100931.75;5004795;28;20061;-75
2022/01/08 09:57:26;;;;;;;13.18;8.15;;;;;;;-0.25;93.13;100910.91;5021555;28;20069;-71
2022/01/08 10:02:23;;;;;;;21.33;11.38;;;;;;;-0.12;92.81;100907.25;5057030;28;20628;-73
2022/01/08 10:04:49;;;;;;;15.05;10.02;;;;;;;-0.12;92.93;100924.41;5014947;28;20085;-72
2022/01/08 10:07:52;;;;;;;17.90;10.43;;;;;;;-0.05;93.08;100927.41;5021323;28;20462;-72
2022/01/08 10:10:18;;;;;;;15.77;10.68;;;;;;;-0.14;92.79;100896.00;5015673;28;20076;-72
2022/01/08 10:12:58;;;;;;;20.52;12.23;;;;;;;-0.08;93.11;100892.81;5022157;28;20492;-71
2022/01/08 10:18:56;;;;;;;18.55;11.93;;;;;;;-0.01;92.86;100905.22;4996932;28;20084;-73
2022/01/08 10:21:23;;;;;;;14.48;9.80;;;;;;;-0.01;93.05;100906.09;4994830;28;20038;-72
2022/01/08 10:23:56;;;;;;;15.43;11.32;;;;;;;0.17;92.98;100902.69;4996767;28;20034;-73
2022/01/08 10:26:30;;;;;;;17.98;12.13;;;;;;;0.11;92.77;100877.44;4995567;28;20077;-74
2022/01/08 10:28:58;;;;;;;19.10;12.13;;;;;;;0.11;92.82;100894.63;4995841;28;20173;-75
2022/01/08 10:31:27;;;;;;;14.00;9.43;;;;;;;0.17;92.59;100894.94;4994191;28;20104;-73
2022/01/08 10:34:04;;;;;;;24.15;13.45;;;;;;;0.12;92.53;100868.03;5001163;28;20042;-71
2022/01/08 10:36:35;;;;;;;21.98;11.02;;;;;;;0.16;92.81;100880.25;5007301;28;20155;-71
2022/01/08 10:39:32;;;;;;;17.00;10.77;;;;;;;0.09;92.67;100883.34;4999587;28;20050;-71
2022/01/08 10:42:09;;;;;;;20.65;12.30;;;;;;;-0.06;92.64;100852.53;4988577;28;20030;-71
2022/01/08 10:44:35;;;;;;;17.35;10.13;;;;;;;-0.11;92.64;100841.09;5002489;28;20029;-71
2022/01/08 10:47:02;;;;;;;15.85;10.88;;;;;;;0.07;93.29;100869.47;4998968;28;20398;-72
2022/01/08 10:49:41;;;;;;;12.27;8.85;;;;;;;0.11;93.17;100855.94;5000523;28;20141;-71
2022/01/08 10:52:15;;;;;;;15.40;8.93;;;;;;;0.07;93.17;100854.91;4998849;28;20456;-71
2022/01/08 10:55:03;;;;;;;;;;;;;;;0.10;93.29;100854.16;5005696;28;20037;-69
2022/01/08 10:57:36;;;;;;;11.27;8.25;;;;;;;-0.05;93.50;100820.75;5003332;28;19919;-77
2022/01/08 11:00:09;;;;;;;23.63;11.38;;;;;;;0.07;93.46;100839.44;4997669;28;20072;-71
2022/01/08 11:02:34;;;;;;;19.52;10.23;;;;;;;0.05;93.47;100841.03;5021161;28;20032;-71
2022/01/08 11:05:06;;;;;;;20.73;12.15;;;;;;;0.17;93.62;100831.31;5005123;28;20046;-71
2022/01/08 11:07:33;;;;;;;21.20;10.43;;;;;;;0.18;93.24;100834.78;5000287;28;20048;-71
2022/01/08 11:12:34;;;;;;;16.63;10.00;;;;;;;0.26;93.20;100824.81;5058276;28;20614;-70
2022/01/08 11:18:01;;;;;;;20.00;9.65;;;;;;;0.28;93.10;100821.53;5022435;28;20030;-72
2022/01/08 11:20:29;;;;;;;18.25;10.68;;;;;;;0.17;93.09;100809.78;5027557;28;20057;-69
2022/01/08 11:23:00;;;;;;;20.73;11.73;;;;;;;0.34;93.27;100814.06;5032999;28;20534;-71
2022/01/08 11:25:50;;;;;;;14.98;9.80;;;;;;;0.41;93.19;100805.78;5034803;28;20025;-69
2022/01/08 11:28:17;;;;;;;18.52;11.52;;;;;;;0.37;93.26;100795.25;5038555;28;20040;-70
2022/01/08 11:30:51;;;;;;;19.35;11.95;;;;;;;0.51;93.03;100803.63;5030535;28;20041;-69
2022/01/08 11:33:30;;;;;;;16.02;9.75;;;;;;;0.38;92.76;100800.47;5036567;28;20045;-71
2022/01/08 11:35:57;;;;;;;19.77;12.48;;;;;;;0.37;93.31;100798.69;5027536;28;20025;-71
2022/01/08 11:38:26;;;;;;;17.38;10.73;;;;;;;0.24;93.29;100786.06;5026088;28;20557;-71
2022/01/08 11:40:53;;;;;;;19.10;9.65;;;;;;;0.45;93.51;100799.09;5027797;28;20327;-71
2022/01/08 11:43:22;;;;;;;16.20;10.50;;;;;;;0.28;93.52;100776.75;5034448;28;20048;-72
2022/01/08 11:46:03;;;;;;;23.75;11.20;;;;;;;0.27;93.53;100762.09;5033220;28;20056;-70
2022/01/08 11:48:34;;;;;;;19.45;13.13;;;;;;;0.35;93.54;100771.06;5032532;28;20041;-70
2022/01/08 11:51:03;;;;;;;18.70;10.43;;;;;;;0.48;93.79;100785.44;5031947;28;20033;-71
2022/01/08 11:53:52;;;;;;;16.27;9.38;;;;;;;0.41;93.40;100761.03;5025377;28;20032;-70
2022/01/08 11:56:27;;;;;;;13.00;8.88;;;;;;;0.48;93.64;100770.81;5024478;28;20053;-70
2022/01/08 11:59:03;;;;;;;15.23;10.80;;;;;;;0.42;93.85;100755.03;5024998;28;20412;-71
2022/01/08 12:01:29;;;;;;;17.45;11.48;;;;;;;0.55;93.71;100741.00;5027980;28;20041;-71
2022/01/08 12:03:55;;;;;;;16.02;11.40;;;;;;;0.51;93.24;100745.13;5031313;28;20084;-78
2022/01/08 12:06:21;;;;;;;20.65;13.25;;;;;;;0.61;93.59;100755.09;5035787;28;20128;-76
2022/01/08 12:09:20;;;;;;;18.40;12.38;;;;;;;0.60;93.49;100745.56;5060952;28;20021;-76
2022/01/08 12:14:28;;;;;;;13.93;8.82;;;;;;;0.48;93.75;100723.47;5044984;28;20613;-77
2022/01/08 12:17:10;;;;;;;15.38;8.70;;;;;;;0.62;93.91;100740.47;5020215;28;20069;-77
2022/01/08 12:19:38;;;;;;;19.15;11.52;;;;;;;0.56;93.89;100717.84;5001988;28;20089;-78
2022/01/08 12:22:16;;;;;;;16.77;11.18;;;;;;;0.72;93.89;100740.06;5004930;28;20030;-78
2022/01/08 12:24:42;;;;;;;19.67;10.52;;;;;;;0.74;93.76;100725.53;4998538;28;20100;-78